sensor_id;sensor_type;location;lat;lon;timestamp;P1;durP1;ratioP1;P2;durP2;ratioP2
68074;SDS011;54864;52.002;5.468;2023-04-15T00:00:14;11.93;;;5.90;;
68074;SDS011;54864;52.002;5.468;2023-04-15T00:01:16;10.25;;;6.45;;
68074;SDS011;54864;52.002;5.468;2023-04-15T00:02:19;13.98;;;5.72;;
68074;SDS011;54864;52.002;5.468;2023-04-15T00:03:21;10.48;;;5.82;;
68074;SDS011;54864;52.002;5.468;2023-04-15T00:04:22;11.67;;;5.50;;
68074;SDS011;54864;52.002;5.468;2023-04-15T00:05:24;12.00;;;6.13;;
68074;SDS011;54864;52.002;5.468;2023-04-15T00:06:25;13.33;;;6.00;;
68074;SDS011;54864;52.002;5.468;2023-04-15T00:07:27;9.00;;;5.78;;
68074;SDS011;54864;52.002;5.468;2023-04-15T00:08:29;12.43;;;5.80;;
68074;SDS011;54864;52.002;5.468;2023-04-15T00:09:31;10.85;;;5.70;;
68074;SDS011;54864;52.002;5.468;2023-04-15T00:10:31;13.43;;;6.10;;
68074;SDS011;54864;52.002;5.468;2023-04-15T00:11:33;11.40;;;5.88;;
68074;SDS011;54864;52.002;5.468;2023-04-15T00:12:34;13.73;;;6.75;;
68074;SDS011;54864;52.002;5.468;2023-04-15T00:13:36;9.70;;;5.90;;
68074;SDS011;54864;52.002;5.468;2023-04-15T00:14:40;12.77;;;5.78;;
68074;SDS011;54864;52.002;5.468;2023-04-15T00:15:45;12.75;;;5.80;;
68074;SDS011;54864;52.002;5.468;2023-04-15T00:16:46;8.93;;;5.13;;
68074;SDS011;54864;52.002;5.468;2023-04-15T00:17:55;11.65;;;5.97;;
68074;SDS011;54864;52.002;5.468;2023-04-15T00:18:56;10.45;;;6.13;;
68074;SDS011;54864;52.002;5.468;2023-04-15T00:19:58;12.55;;;5.72;;
68074;SDS011;54864;52.002;5.468;2023-04-15T00:21:00;9.90;;;5.60;;
68074;SDS011;54864;52.002;5.468;2023-04-15T00:22:01;10.63;;;5.60;;
68074;SDS011;54864;52.002;5.468;2023-04-15T00:23:03;13.10;;;5.88;;
68074;SDS011;54864;52.002;5.468;2023-04-15T00:24:04;10.13;;;5.90;;
68074;SDS011;54864;52.002;5.468;2023-04-15T00:25:07;10.43;;;5.63;;
68074;SDS011;54864;52.002;5.468;2023-04-15T00:26:08;13.00;;;5.78;;
68074;SDS011;54864;52.002;5.468;2023-04-15T00:27:10;9.93;;;5.80;;
68074;SDS011;54864;52.002;5.468;2023-04-15T00:28:11;12.50;;;6.05;;
68074;SDS011;54864;52.002;5.468;2023-04-15T00:29:13;17.38;;;6.95;;
68074;SDS011;54864;52.002;5.468;2023-04-15T00:30:14;11.50;;;6.15;;
68074;SDS011;54864;52.002;5.468;2023-04-15T00:31:16;10.57;;;6.10;;
68074;SDS011;54864;52.002;5.468;2023-04-15T00:32:16;11.98;;;6.03;;
68074;SDS011;54864;52.002;5.468;2023-04-15T00:33:20;10.38;;;5.68;;
68074;SDS011;54864;52.002;5.468;2023-04-15T00:34:21;10.70;;;5.45;;
68074;SDS011;54864;52.002;5.468;2023-04-15T00:35:23;10.00;;;5.68;;
68074;SDS011;54864;52.002;5.468;2023-04-15T00:36:24;12.40;;;6.00;;
68074;SDS011;54864;52.002;5.468;2023-04-15T00:37:26;11.80;;;6.03;;
68074;SDS011;54864;52.002;5.468;2023-04-15T00:38:27;11.37;;;5.60;;
68074;SDS011;54864;52.002;5.468;2023-04-15T00:39:29;11.77;;;6.13;;
68074;SDS011;54864;52.002;5.468;2023-04-15T00:40:30;12.20;;;6.63;;
68074;SDS011;54864;52.002;5.468;2023-04-15T00:41:32;11.35;;;5.88;;
68074;SDS011;54864;52.002;5.468;2023-04-15T00:42:41;11.40;;;5.50;;
68074;SDS011;54864;52.002;5.468;2023-04-15T00:43:43;10.23;;;5.90;;
68074;SDS011;54864;52.002;5.468;2023-04-15T00:44:44;9.55;;;5.68;;
68074;SDS011;54864;52.002;5.468;2023-04-15T00:45:46;9.43;;;5.10;;
68074;SDS011;54864;52.002;5.468;2023-04-15T00:46:47;15.60;;;6.45;;
68074;SDS011;54864;52.002;5.468;2023-04-15T00:47:51;13.88;;;6.90;;
68074;SDS011;54864;52.002;5.468;2023-04-15T00:48:53;11.27;;;6.13;;
68074;SDS011;54864;52.002;5.468;2023-04-15T00:49:55;12.02;;;6.07;;
68074;SDS011;54864;52.002;5.468;2023-04-15T00:50:57;11.88;;;6.00;;
68074;SDS011;54864;52.002;5.468;2023-04-15T00:51:59;9.85;;;5.80;;
68074;SDS011;54864;52.002;5.468;2023-04-15T00:53:01;12.73;;;6.90;;
68074;SDS011;54864;52.002;5.468;2023-04-15T00:54:01;10.10;;;5.80;;
68074;SDS011;54864;52.002;5.468;2023-04-15T00:55:04;9.55;;;5.90;;
68074;SDS011;54864;52.002;5.468;2023-04-15T00:56:06;12.15;;;6.38;;
68074;SDS011;54864;52.002;5.468;2023-04-15T00:57:08;9.73;;;6.18;;
68074;SDS011;54864;52.002;5.468;2023-04-15T00:58:08;11.93;;;6.30;;
68074;SDS011;54864;52.002;5.468;2023-04-15T00:59:10;11.70;;;6.05;;
68074;SDS011;54864;52.002;5.468;2023-04-15T01:00:12;10.35;;;5.85;;
68074;SDS011;54864;52.002;5.468;2023-04-15T01:01:13;13.07;;;5.65;;
68074;SDS011;54864;52.002;5.468;2023-04-15T01:02:15;12.75;;;5.82;;
68074;SDS011;54864;52.002;5.468;2023-04-15T01:03:18;10.38;;;5.82;;
68074;SDS011;54864;52.002;5.468;2023-04-15T01:04:22;11.13;;;6.00;;
68074;SDS011;54864;52.002;5.468;2023-04-15T01:05:23;16.98;;;6.40;;
68074;SDS011;54864;52.002;5.468;2023-04-15T01:06:26;13.00;;;5.40;;
68074;SDS011;54864;52.002;5.468;2023-04-15T01:07:28;12.00;;;6.07;;
68074;SDS011;54864;52.002;5.468;2023-04-15T01:08:28;10.65;;;5.75;;
68074;SDS011;54864;52.002;5.468;2023-04-15T01:09:31;7.78;;;6.18;;
68074;SDS011;54864;52.002;5.468;2023-04-15T01:10:32;12.18;;;6.38;;
68074;SDS011;54864;52.002;5.468;2023-04-15T01:11:34;13.13;;;6.53;;
68074;SDS011;54864;52.002;5.468;2023-04-15T01:12:36;10.50;;;6.60;;
68074;SDS011;54864;52.002;5.468;2023-04-15T01:13:41;10.73;;;6.07;;
68074;SDS011;54864;52.002;5.468;2023-04-15T01:14:43;10.32;;;6.05;;
68074;SDS011;54864;52.002;5.468;2023-04-15T01:15:46;13.35;;;5.90;;
68074;SDS011;54864;52.002;5.468;2023-04-15T01:16:47;12.67;;;6.37;;
68074;SDS011;54864;52.002;5.468;2023-04-15T01:17:50;10.85;;;5.93;;
68074;SDS011;54864;52.002;5.468;2023-04-15T01:18:51;11.35;;;5.72;;
68074;SDS011;54864;52.002;5.468;2023-04-15T01:19:55;11.23;;;6.75;;
68074;SDS011;54864;52.002;5.468;2023-04-15T01:20:57;11.88;;;6.00;;
68074;SDS011;54864;52.002;5.468;2023-04-15T01:22:02;16.50;;;7.15;;
68074;SDS011;54864;52.002;5.468;2023-04-15T01:23:04;12.23;;;6.87;;
68074;SDS011;54864;52.002;5.468;2023-04-15T01:24:09;10.88;;;6.68;;
68074;SDS011;54864;52.002;5.468;2023-04-15T01:25:10;11.85;;;6.13;;
68074;SDS011;54864;52.002;5.468;2023-04-15T01:26:19;12.35;;;6.57;;
68074;SDS011;54864;52.002;5.468;2023-04-15T01:27:21;11.70;;;6.70;;
68074;SDS011;54864;52.002;5.468;2023-04-15T01:28:23;10.70;;;6.50;;
68074;SDS011;54864;52.002;5.468;2023-04-15T01:29:24;14.10;;;7.20;;
68074;SDS011;54864;52.002;5.468;2023-04-15T01:30:27;13.00;;;7.10;;
68074;SDS011;54864;52.002;5.468;2023-04-15T01:31:27;15.93;;;7.35;;
68074;SDS011;54864;52.002;5.468;2023-04-15T01:32:32;12.55;;;6.57;;
68074;SDS011;54864;52.002;5.468;2023-04-15T01:33:32;11.27;;;6.80;;
68074;SDS011;54864;52.002;5.468;2023-04-15T01:34:37;12.63;;;6.75;;
68074;SDS011;54864;52.002;5.468;2023-04-15T01:35:40;10.55;;;6.00;;
68074;SDS011;54864;52.002;5.468;2023-04-15T01:36:43;13.00;;;7.15;;
68074;SDS011;54864;52.002;5.468;2023-04-15T01:37:44;11.77;;;7.40;;
68074;SDS011;54864;52.002;5.468;2023-04-15T01:38:46;10.35;;;6.68;;
68074;SDS011;54864;52.002;5.468;2023-04-15T01:39:48;12.05;;;7.18;;
68074;SDS011;54864;52.002;5.468;2023-04-15T01:40:49;15.80;;;7.30;;
68074;SDS011;54864;52.002;5.468;2023-04-15T01:41:51;14.93;;;7.27;;
68074;SDS011;54864;52.002;5.468;2023-04-15T01:42:53;13.55;;;6.82;;
68074;SDS011;54864;52.002;5.468;2023-04-15T01:43:54;10.67;;;7.43;;
68074;SDS011;54864;52.002;5.468;2023-04-15T01:44:56;12.50;;;7.20;;
68074;SDS011;54864;52.002;5.468;2023-04-15T01:46:04;16.02;;;7.70;;
68074;SDS011;54864;52.002;5.468;2023-04-15T01:47:06;13.52;;;6.90;;
68074;SDS011;54864;52.002;5.468;2023-04-15T01:48:07;15.02;;;6.80;;
68074;SDS011;54864;52.002;5.468;2023-04-15T01:49:09;13.38;;;7.53;;
68074;SDS011;54864;52.002;5.468;2023-04-15T01:50:10;10.20;;;7.00;;
68074;SDS011;54864;52.002;5.468;2023-04-15T01:51:13;13.25;;;7.28;;
68074;SDS011;54864;52.002;5.468;2023-04-15T01:52:13;12.35;;;6.97;;
68074;SDS011;54864;52.002;5.468;2023-04-15T01:53:15;14.73;;;7.53;;
68074;SDS011;54864;52.002;5.468;2023-04-15T01:54:19;12.93;;;7.18;;
68074;SDS011;54864;52.002;5.468;2023-04-15T01:55:21;13.77;;;6.85;;
68074;SDS011;54864;52.002;5.468;2023-04-15T01:56:24;15.57;;;7.63;;
68074;SDS011;54864;52.002;5.468;2023-04-15T01:57:27;14.60;;;7.45;;
68074;SDS011;54864;52.002;5.468;2023-04-15T01:58:28;11.27;;;6.85;;
68074;SDS011;54864;52.002;5.468;2023-04-15T01:59:30;14.23;;;7.30;;
68074;SDS011;54864;52.002;5.468;2023-04-15T02:00:31;11.53;;;6.97;;
68074;SDS011;54864;52.002;5.468;2023-04-15T02:01:33;15.00;;;7.18;;
68074;SDS011;54864;52.002;5.468;2023-04-15T02:02:34;13.05;;;8.05;;
68074;SDS011;54864;52.002;5.468;2023-04-15T02:03:36;14.40;;;7.45;;
68074;SDS011;54864;52.002;5.468;2023-04-15T02:04:41;12.80;;;7.27;;
68074;SDS011;54864;52.002;5.468;2023-04-15T02:05:42;14.53;;;7.50;;
68074;SDS011;54864;52.002;5.468;2023-04-15T02:06:43;12.10;;;7.53;;
68074;SDS011;54864;52.002;5.468;2023-04-15T02:07:45;12.23;;;7.07;;
68074;SDS011;54864;52.002;5.468;2023-04-15T02:08:47;13.88;;;7.00;;
68074;SDS011;54864;52.002;5.468;2023-04-15T02:09:48;10.55;;;7.20;;
68074;SDS011;54864;52.002;5.468;2023-04-15T02:10:50;12.40;;;7.60;;
68074;SDS011;54864;52.002;5.468;2023-04-15T02:11:51;12.13;;;6.75;;
68074;SDS011;54864;52.002;5.468;2023-04-15T02:12:55;8.95;;;7.10;;
68074;SDS011;54864;52.002;5.468;2023-04-15T02:13:55;10.25;;;6.78;;
68074;SDS011;54864;52.002;5.468;2023-04-15T02:14:57;9.55;;;7.00;;
68074;SDS011;54864;52.002;5.468;2023-04-15T02:15:58;12.37;;;7.17;;
68074;SDS011;54864;52.002;5.468;2023-04-15T02:17:00;13.32;;;6.95;;
68074;SDS011;54864;52.002;5.468;2023-04-15T02:18:06;14.13;;;6.82;;
68074;SDS011;54864;52.002;5.468;2023-04-15T02:19:08;11.80;;;6.55;;
68074;SDS011;54864;52.002;5.468;2023-04-15T02:20:09;11.23;;;7.13;;
68074;SDS011;54864;52.002;5.468;2023-04-15T02:21:11;12.38;;;6.88;;
68074;SDS011;54864;52.002;5.468;2023-04-15T02:22:12;11.48;;;7.32;;
68074;SDS011;54864;52.002;5.468;2023-04-15T02:23:17;11.18;;;6.93;;
68074;SDS011;54864;52.002;5.468;2023-04-15T02:24:18;13.18;;;7.80;;
68074;SDS011;54864;52.002;5.468;2023-04-15T02:25:20;12.75;;;7.32;;
68074;SDS011;54864;52.002;5.468;2023-04-15T02:26:20;11.70;;;7.03;;
68074;SDS011;54864;52.002;5.468;2023-04-15T02:27:24;10.77;;;7.53;;
68074;SDS011;54864;52.002;5.468;2023-04-15T02:28:26;12.25;;;6.88;;
68074;SDS011;54864;52.002;5.468;2023-04-15T02:29:27;12.25;;;7.35;;
68074;SDS011;54864;52.002;5.468;2023-04-15T02:30:28;8.40;;;6.88;;
68074;SDS011;54864;52.002;5.468;2023-04-15T02:31:30;11.77;;;7.15;;
68074;SDS011;54864;52.002;5.468;2023-04-15T02:32:36;13.40;;;7.30;;
68074;SDS011;54864;52.002;5.468;2023-04-15T02:33:38;13.70;;;7.40;;
68074;SDS011;54864;52.002;5.468;2023-04-15T02:34:40;12.82;;;7.32;;
68074;SDS011;54864;52.002;5.468;2023-04-15T02:35:43;13.10;;;7.28;;
68074;SDS011;54864;52.002;5.468;2023-04-15T02:36:45;13.90;;;7.07;;
68074;SDS011;54864;52.002;5.468;2023-04-15T02:37:47;12.82;;;8.20;;
68074;SDS011;54864;52.002;5.468;2023-04-15T02:38:49;11.88;;;7.70;;
68074;SDS011;54864;52.002;5.468;2023-04-15T02:39:50;12.82;;;7.15;;
68074;SDS011;54864;52.002;5.468;2023-04-15T02:40:52;12.48;;;7.18;;
68074;SDS011;54864;52.002;5.468;2023-04-15T02:41:52;12.43;;;7.23;;
68074;SDS011;54864;52.002;5.468;2023-04-15T02:42:54;15.20;;;8.02;;
68074;SDS011;54864;52.002;5.468;2023-04-15T02:43:56;12.73;;;7.75;;
68074;SDS011;54864;52.002;5.468;2023-04-15T02:44:58;15.07;;;7.78;;
68074;SDS011;54864;52.002;5.468;2023-04-15T02:45:59;14.00;;;8.23;;
68074;SDS011;54864;52.002;5.468;2023-04-15T02:47:02;13.20;;;7.50;;
68074;SDS011;54864;52.002;5.468;2023-04-15T02:48:04;11.52;;;7.40;;
68074;SDS011;54864;52.002;5.468;2023-04-15T02:49:06;10.75;;;7.00;;
68074;SDS011;54864;52.002;5.468;2023-04-15T02:50:08;11.77;;;7.53;;
68074;SDS011;54864;52.002;5.468;2023-04-15T02:51:17;11.27;;;7.60;;
68074;SDS011;54864;52.002;5.468;2023-04-15T02:52:19;11.13;;;6.95;;
68074;SDS011;54864;52.002;5.468;2023-04-15T02:53:21;11.20;;;7.30;;
68074;SDS011;54864;52.002;5.468;2023-04-15T02:54:23;11.50;;;7.22;;
68074;SDS011;54864;52.002;5.468;2023-04-15T02:55:24;13.17;;;7.77;;
68074;SDS011;54864;52.002;5.468;2023-04-15T02:56:26;13.00;;;7.97;;
68074;SDS011;54864;52.002;5.468;2023-04-15T02:57:27;12.77;;;7.90;;
68074;SDS011;54864;52.002;5.468;2023-04-15T02:58:29;12.68;;;7.38;;
68074;SDS011;54864;52.002;5.468;2023-04-15T02:59:32;13.20;;;7.45;;
68074;SDS011;54864;52.002;5.468;2023-04-15T03:00:35;14.00;;;7.90;;
68074;SDS011;54864;52.002;5.468;2023-04-15T03:01:37;13.38;;;7.82;;
68074;SDS011;54864;52.002;5.468;2023-04-15T03:02:41;13.82;;;8.00;;
68074;SDS011;54864;52.002;5.468;2023-04-15T03:03:45;11.80;;;7.78;;
68074;SDS011;54864;52.002;5.468;2023-04-15T03:04:46;16.88;;;8.00;;
68074;SDS011;54864;52.002;5.468;2023-04-15T03:05:48;11.13;;;7.80;;
68074;SDS011;54864;52.002;5.468;2023-04-15T03:06:49;14.02;;;7.90;;
68074;SDS011;54864;52.002;5.468;2023-04-15T03:07:50;13.80;;;8.05;;
68074;SDS011;54864;52.002;5.468;2023-04-15T03:08:51;13.52;;;8.02;;
68074;SDS011;54864;52.002;5.468;2023-04-15T03:09:53;14.60;;;7.60;;
68074;SDS011;54864;52.002;5.468;2023-04-15T03:10:55;11.80;;;8.10;;
68074;SDS011;54864;52.002;5.468;2023-04-15T03:11:59;11.88;;;8.20;;
68074;SDS011;54864;52.002;5.468;2023-04-15T03:13:00;12.18;;;7.55;;
68074;SDS011;54864;52.002;5.468;2023-04-15T03:14:05;11.73;;;8.10;;
68074;SDS011;54864;52.002;5.468;2023-04-15T03:15:08;11.45;;;7.65;;
68074;SDS011;54864;52.002;5.468;2023-04-15T03:16:10;12.70;;;8.30;;
68074;SDS011;54864;52.002;5.468;2023-04-15T03:17:11;12.70;;;8.02;;
68074;SDS011;54864;52.002;5.468;2023-04-15T03:18:13;11.93;;;7.28;;
68074;SDS011;54864;52.002;5.468;2023-04-15T03:19:14;12.83;;;7.47;;
68074;SDS011;54864;52.002;5.468;2023-04-15T03:20:15;13.38;;;7.65;;
68074;SDS011;54864;52.002;5.468;2023-04-15T03:21:20;13.02;;;8.18;;
68074;SDS011;54864;52.002;5.468;2023-04-15T03:22:23;14.48;;;8.18;;
68074;SDS011;54864;52.002;5.468;2023-04-15T03:23:24;10.85;;;8.50;;
68074;SDS011;54864;52.002;5.468;2023-04-15T03:24:26;13.70;;;8.63;;
68074;SDS011;54864;52.002;5.468;2023-04-15T03:25:28;15.20;;;8.25;;
68074;SDS011;54864;52.002;5.468;2023-04-15T03:26:30;12.30;;;8.05;;
68074;SDS011;54864;52.002;5.468;2023-04-15T03:27:31;12.07;;;8.07;;
68074;SDS011;54864;52.002;5.468;2023-04-15T03:28:33;13.70;;;8.05;;
68074;SDS011;54864;52.002;5.468;2023-04-15T03:29:33;12.50;;;8.93;;
68074;SDS011;54864;52.002;5.468;2023-04-15T03:30:37;14.50;;;7.97;;
68074;SDS011;54864;52.002;5.468;2023-04-15T03:31:39;12.88;;;9.05;;
68074;SDS011;54864;52.002;5.468;2023-04-15T03:32:41;13.88;;;8.15;;
68074;SDS011;54864;52.002;5.468;2023-04-15T03:33:45;12.35;;;7.97;;
68074;SDS011;54864;52.002;5.468;2023-04-15T03:34:47;14.77;;;8.20;;
68074;SDS011;54864;52.002;5.468;2023-04-15T03:35:49;13.07;;;8.02;;
68074;SDS011;54864;52.002;5.468;2023-04-15T03:36:50;12.35;;;8.43;;
68074;SDS011;54864;52.002;5.468;2023-04-15T03:37:52;14.57;;;8.00;;
68074;SDS011;54864;52.002;5.468;2023-04-15T03:38:52;14.07;;;8.47;;
68074;SDS011;54864;52.002;5.468;2023-04-15T03:39:55;14.80;;;8.32;;
68074;SDS011;54864;52.002;5.468;2023-04-15T03:40:55;14.68;;;7.82;;
68074;SDS011;54864;52.002;5.468;2023-04-15T03:41:57;15.35;;;8.35;;
68074;SDS011;54864;52.002;5.468;2023-04-15T03:42:58;13.33;;;8.50;;
68074;SDS011;54864;52.002;5.468;2023-04-15T03:44:00;12.38;;;8.30;;
68074;SDS011;54864;52.002;5.468;2023-04-15T03:45:00;12.70;;;8.70;;
68074;SDS011;54864;52.002;5.468;2023-04-15T03:46:04;14.70;;;8.73;;
68074;SDS011;54864;52.002;5.468;2023-04-15T03:47:05;13.55;;;8.43;;
68074;SDS011;54864;52.002;5.468;2023-04-15T03:48:07;14.63;;;8.82;;
68074;SDS011;54864;52.002;5.468;2023-04-15T03:49:07;14.70;;;9.50;;
68074;SDS011;54864;52.002;5.468;2023-04-15T03:50:09;13.13;;;8.57;;
68074;SDS011;54864;52.002;5.468;2023-04-15T03:51:11;13.00;;;8.27;;
68074;SDS011;54864;52.002;5.468;2023-04-15T03:52:12;14.97;;;8.50;;
68074;SDS011;54864;52.002;5.468;2023-04-15T03:53:14;13.68;;;8.00;;
68074;SDS011;54864;52.002;5.468;2023-04-15T03:54:17;13.57;;;8.70;;
68074;SDS011;54864;52.002;5.468;2023-04-15T03:55:19;14.30;;;9.23;;
68074;SDS011;54864;52.002;5.468;2023-04-15T03:56:20;13.02;;;8.73;;
68074;SDS011;54864;52.002;5.468;2023-04-15T03:57:22;13.48;;;8.40;;
68074;SDS011;54864;52.002;5.468;2023-04-15T03:58:23;12.65;;;8.60;;
68074;SDS011;54864;52.002;5.468;2023-04-15T03:59:24;14.17;;;9.50;;
68074;SDS011;54864;52.002;5.468;2023-04-15T04:00:25;13.10;;;9.20;;
68074;SDS011;54864;52.002;5.468;2023-04-15T04:01:28;13.65;;;8.75;;
68074;SDS011;54864;52.002;5.468;2023-04-15T04:02:29;13.95;;;8.65;;
68074;SDS011;54864;52.002;5.468;2023-04-15T04:03:34;14.18;;;9.02;;
68074;SDS011;54864;52.002;5.468;2023-04-15T04:04:36;16.38;;;9.18;;
68074;SDS011;54864;52.002;5.468;2023-04-15T04:05:40;14.23;;;9.07;;
68074;SDS011;54864;52.002;5.468;2023-04-15T04:06:43;14.38;;;9.13;;
68074;SDS011;54864;52.002;5.468;2023-04-15T04:07:47;14.15;;;8.80;;
68074;SDS011;54864;52.002;5.468;2023-04-15T04:08:47;16.27;;;9.63;;
68074;SDS011;54864;52.002;5.468;2023-04-15T04:09:49;14.80;;;9.35;;
68074;SDS011;54864;52.002;5.468;2023-04-15T04:10:53;15.65;;;9.20;;
68074;SDS011;54864;52.002;5.468;2023-04-15T04:11:55;15.77;;;9.52;;
68074;SDS011;54864;52.002;5.468;2023-04-15T04:12:55;13.63;;;9.25;;
68074;SDS011;54864;52.002;5.468;2023-04-15T04:14:00;14.35;;;10.07;;
68074;SDS011;54864;52.002;5.468;2023-04-15T04:15:01;15.87;;;10.20;;
68074;SDS011;54864;52.002;5.468;2023-04-15T04:16:02;14.38;;;8.55;;
68074;SDS011;54864;52.002;5.468;2023-04-15T04:17:05;14.63;;;9.57;;
68074;SDS011;54864;52.002;5.468;2023-04-15T04:18:10;19.02;;;10.75;;
68074;SDS011;54864;52.002;5.468;2023-04-15T04:19:11;14.75;;;9.50;;
68074;SDS011;54864;52.002;5.468;2023-04-15T04:20:14;15.18;;;9.45;;
68074;SDS011;54864;52.002;5.468;2023-04-15T04:21:15;16.20;;;9.88;;
68074;SDS011;54864;52.002;5.468;2023-04-15T04:22:17;17.23;;;10.43;;
68074;SDS011;54864;52.002;5.468;2023-04-15T04:23:22;12.48;;;9.32;;
68074;SDS011;54864;52.002;5.468;2023-04-15T04:24:23;14.20;;;9.63;;
68074;SDS011;54864;52.002;5.468;2023-04-15T04:25:25;16.63;;;10.50;;
68074;SDS011;54864;52.002;5.468;2023-04-15T04:26:27;17.83;;;10.30;;
68074;SDS011;54864;52.002;5.468;2023-04-15T04:27:31;15.15;;;9.63;;
68074;SDS011;54864;52.002;5.468;2023-04-15T04:28:32;14.05;;;9.68;;
68074;SDS011;54864;52.002;5.468;2023-04-15T04:29:34;12.80;;;9.88;;
68074;SDS011;54864;52.002;5.468;2023-04-15T04:30:36;13.32;;;9.57;;
68074;SDS011;54864;52.002;5.468;2023-04-15T04:31:37;15.13;;;10.27;;
68074;SDS011;54864;52.002;5.468;2023-04-15T04:32:40;13.02;;;9.82;;
68074;SDS011;54864;52.002;5.468;2023-04-15T04:33:41;15.27;;;9.95;;
68074;SDS011;54864;52.002;5.468;2023-04-15T04:34:43;14.80;;;10.20;;
68074;SDS011;54864;52.002;5.468;2023-04-15T04:35:43;15.27;;;9.93;;
68074;SDS011;54864;52.002;5.468;2023-04-15T04:36:45;14.40;;;10.13;;
68074;SDS011;54864;52.002;5.468;2023-04-15T04:37:46;15.27;;;10.32;;
68074;SDS011;54864;52.002;5.468;2023-04-15T04:38:47;15.27;;;9.57;;
68074;SDS011;54864;52.002;5.468;2023-04-15T04:39:48;13.77;;;10.45;;
68074;SDS011;54864;52.002;5.468;2023-04-15T04:40:50;12.48;;;9.43;;
68074;SDS011;54864;52.002;5.468;2023-04-15T04:41:50;15.37;;;9.57;;
68074;SDS011;54864;52.002;5.468;2023-04-15T04:42:53;17.27;;;10.40;;
68074;SDS011;54864;52.002;5.468;2023-04-15T04:43:56;17.15;;;10.05;;
68074;SDS011;54864;52.002;5.468;2023-04-15T04:44:58;16.45;;;10.35;;
68074;SDS011;54864;52.002;5.468;2023-04-15T04:45:59;16.20;;;10.00;;
68074;SDS011;54864;52.002;5.468;2023-04-15T04:47:01;16.77;;;10.15;;
68074;SDS011;54864;52.002;5.468;2023-04-15T04:48:03;15.05;;;10.50;;
68074;SDS011;54864;52.002;5.468;2023-04-15T04:49:07;14.50;;;10.73;;
68074;SDS011;54864;52.002;5.468;2023-04-15T04:50:09;17.30;;;10.63;;
68074;SDS011;54864;52.002;5.468;2023-04-15T04:51:11;17.25;;;10.00;;
68074;SDS011;54864;52.002;5.468;2023-04-15T04:52:11;15.00;;;10.50;;
68074;SDS011;54864;52.002;5.468;2023-04-15T04:53:14;16.42;;;10.45;;
68074;SDS011;54864;52.002;5.468;2023-04-15T04:54:15;14.50;;;9.93;;
68074;SDS011;54864;52.002;5.468;2023-04-15T04:55:17;12.27;;;9.68;;
68074;SDS011;54864;52.002;5.468;2023-04-15T04:56:17;14.20;;;10.17;;
68074;SDS011;54864;52.002;5.468;2023-04-15T04:57:20;16.05;;;10.60;;
68074;SDS011;54864;52.002;5.468;2023-04-15T04:58:21;18.58;;;10.98;;
68074;SDS011;54864;52.002;5.468;2023-04-15T04:59:22;15.55;;;10.43;;
68074;SDS011;54864;52.002;5.468;2023-04-15T05:00:25;14.43;;;10.45;;
68074;SDS011;54864;52.002;5.468;2023-04-15T05:01:27;19.13;;;9.90;;
68074;SDS011;54864;52.002;5.468;2023-04-15T05:02:28;15.90;;;10.17;;
68074;SDS011;54864;52.002;5.468;2023-04-15T05:03:31;15.75;;;10.18;;
68074;SDS011;54864;52.002;5.468;2023-04-15T05:04:32;12.82;;;9.70;;
68074;SDS011;54864;52.002;5.468;2023-04-15T05:05:37;15.98;;;10.57;;
68074;SDS011;54864;52.002;5.468;2023-04-15T05:06:40;15.52;;;10.60;;
68074;SDS011;54864;52.002;5.468;2023-04-15T05:07:42;16.45;;;11.90;;
68074;SDS011;54864;52.002;5.468;2023-04-15T05:08:42;17.52;;;10.98;;
68074;SDS011;54864;52.002;5.468;2023-04-15T05:09:45;14.90;;;11.00;;
68074;SDS011;54864;52.002;5.468;2023-04-15T05:10:46;15.20;;;10.50;;
68074;SDS011;54864;52.002;5.468;2023-04-15T05:11:48;15.02;;;10.57;;
68074;SDS011;54864;52.002;5.468;2023-04-15T05:12:49;15.00;;;10.73;;
68074;SDS011;54864;52.002;5.468;2023-04-15T05:13:51;13.20;;;9.80;;
68074;SDS011;54864;52.002;5.468;2023-04-15T05:14:52;14.77;;;11.00;;
68074;SDS011;54864;52.002;5.468;2023-04-15T05:15:54;17.10;;;10.57;;
68074;SDS011;54864;52.002;5.468;2023-04-15T05:16:56;15.98;;;11.10;;
68074;SDS011;54864;52.002;5.468;2023-04-15T05:17:56;14.77;;;10.82;;
68074;SDS011;54864;52.002;5.468;2023-04-15T05:18:59;15.47;;;10.77;;
68074;SDS011;54864;52.002;5.468;2023-04-15T05:20:00;18.42;;;11.85;;
68074;SDS011;54864;52.002;5.468;2023-04-15T05:21:05;16.30;;;10.98;;
68074;SDS011;54864;52.002;5.468;2023-04-15T05:22:06;18.17;;;11.43;;
68074;SDS011;54864;52.002;5.468;2023-04-15T05:23:10;18.15;;;11.43;;
68074;SDS011;54864;52.002;5.468;2023-04-15T05:24:11;16.57;;;11.83;;
68074;SDS011;54864;52.002;5.468;2023-04-15T05:25:15;18.67;;;11.98;;
68074;SDS011;54864;52.002;5.468;2023-04-15T05:26:17;18.52;;;11.82;;
68074;SDS011;54864;52.002;5.468;2023-04-15T05:27:18;16.58;;;11.25;;
68074;SDS011;54864;52.002;5.468;2023-04-15T05:28:19;19.77;;;11.98;;
68074;SDS011;54864;52.002;5.468;2023-04-15T05:29:22;15.73;;;11.32;;
68074;SDS011;54864;52.002;5.468;2023-04-15T05:30:23;19.70;;;11.80;;
68074;SDS011;54864;52.002;5.468;2023-04-15T05:31:24;21.55;;;12.18;;
68074;SDS011;54864;52.002;5.468;2023-04-15T05:32:25;17.42;;;11.27;;
68074;SDS011;54864;52.002;5.468;2023-04-15T05:33:27;17.08;;;11.95;;
68074;SDS011;54864;52.002;5.468;2023-04-15T05:34:30;22.90;;;11.80;;
68074;SDS011;54864;52.002;5.468;2023-04-15T05:35:31;17.73;;;12.23;;
68074;SDS011;54864;52.002;5.468;2023-04-15T05:36:32;16.33;;;12.05;;
68074;SDS011;54864;52.002;5.468;2023-04-15T05:37:34;19.13;;;12.75;;
68074;SDS011;54864;52.002;5.468;2023-04-15T05:38:36;17.55;;;11.45;;
68074;SDS011;54864;52.002;5.468;2023-04-15T05:39:36;19.33;;;12.20;;
68074;SDS011;54864;52.002;5.468;2023-04-15T05:40:38;16.48;;;11.88;;
68074;SDS011;54864;52.002;5.468;2023-04-15T05:41:39;20.15;;;12.20;;
68074;SDS011;54864;52.002;5.468;2023-04-15T05:42:41;16.77;;;11.20;;
68074;SDS011;54864;52.002;5.468;2023-04-15T05:43:42;17.58;;;12.45;;
68074;SDS011;54864;52.002;5.468;2023-04-15T05:44:43;16.27;;;12.30;;
68074;SDS011;54864;52.002;5.468;2023-04-15T05:45:45;17.08;;;11.65;;
68074;SDS011;54864;52.002;5.468;2023-04-15T05:46:46;18.40;;;12.07;;
68074;SDS011;54864;52.002;5.468;2023-04-15T05:47:48;27.33;;;12.50;;
68074;SDS011;54864;52.002;5.468;2023-04-15T05:48:49;18.30;;;12.10;;
68074;SDS011;54864;52.002;5.468;2023-04-15T05:49:53;19.63;;;12.30;;
68074;SDS011;54864;52.002;5.468;2023-04-15T05:50:55;18.33;;;12.05;;
68074;SDS011;54864;52.002;5.468;2023-04-15T05:51:55;17.17;;;11.67;;
68074;SDS011;54864;52.002;5.468;2023-04-15T05:52:57;14.63;;;10.93;;
68074;SDS011;54864;52.002;5.468;2023-04-15T05:53:58;20.98;;;12.93;;
68074;SDS011;54864;52.002;5.468;2023-04-15T05:55:00;16.10;;;11.48;;
68074;SDS011;54864;52.002;5.468;2023-04-15T05:56:01;18.15;;;12.82;;
68074;SDS011;54864;52.002;5.468;2023-04-15T05:57:03;16.65;;;11.70;;
68074;SDS011;54864;52.002;5.468;2023-04-15T05:58:03;17.33;;;12.23;;
68074;SDS011;54864;52.002;5.468;2023-04-15T05:59:05;15.63;;;11.60;;
68074;SDS011;54864;52.002;5.468;2023-04-15T06:00:06;15.55;;;11.40;;
68074;SDS011;54864;52.002;5.468;2023-04-15T06:01:11;17.73;;;12.43;;
68074;SDS011;54864;52.002;5.468;2023-04-15T06:02:12;18.08;;;12.00;;
68074;SDS011;54864;52.002;5.468;2023-04-15T06:03:15;16.05;;;12.05;;
68074;SDS011;54864;52.002;5.468;2023-04-15T06:04:16;17.77;;;11.65;;
68074;SDS011;54864;52.002;5.468;2023-04-15T06:05:19;17.42;;;11.90;;
68074;SDS011;54864;52.002;5.468;2023-04-15T06:06:20;19.05;;;12.30;;